createdAt,value
2023-08-18T00:00:07.355Z,101060.88
2023-08-18T00:02:36.570Z,101059.91
2023-08-18T00:05:03.563Z,101060.25
2023-08-18T00:07:30.911Z,101066.31
2023-08-18T00:09:58.080Z,101066.69
2023-08-18T00:12:25.045Z,101052.81
2023-08-18T00:14:53.276Z,101061.69
2023-08-18T00:17:20.134Z,101059.84
2023-08-18T00:20:06.950Z,101062.34
2023-08-18T00:23:07.904Z,101060.25
2023-08-18T00:25:48.330Z,101054.91
2023-08-18T00:28:15.213Z,101055.00
2023-08-18T00:30:42.097Z,101055.84
2023-08-18T00:33:28.922Z,101057.59
2023-08-18T00:36:29.909Z,101054.25
2023-08-18T00:39:10.489Z,101048.59
2023-08-18T00:41:37.336Z,101046.06
2023-08-18T00:44:04.260Z,101039.72
2023-08-18T00:46:32.128Z,101051.44
2023-08-18T00:48:59.769Z,101049.72
2023-08-18T00:51:26.827Z,101043.84
2023-08-18T00:53:54.433Z,101045.06
2023-08-18T00:56:21.300Z,101044.19
2023-08-18T00:58:48.169Z,101039.22
2023-08-18T01:01:15.051Z,101041.09
2023-08-18T01:03:42.468Z,101046.06
2023-08-18T01:06:42.949Z,101037.16
2023-08-18T01:09:43.929Z,101040.19
2023-08-18T01:12:51.930Z,101034.78
2023-08-18T01:15:36.235Z,101040.13
2023-08-18T01:18:04.610Z,101045.41
2023-08-18T01:20:32.485Z,101048.09
2023-08-18T01:23:00.020Z,101047.19
2023-08-18T01:25:27.247Z,101043.66
2023-08-18T01:27:55.061Z,101050.28
2023-08-18T01:30:22.981Z,101045.44
2023-08-18T01:32:55.974Z,101045.25
2023-08-18T01:35:27.152Z,101037.94
2023-08-18T01:37:54.915Z,101037.84
2023-08-18T01:41:13.009Z,101038.59
2023-08-18T01:43:17.175Z,101043.59
2023-08-18T01:45:44.099Z,101044.25
2023-08-18T01:48:11.171Z,101043.47
2023-08-18T01:50:38.032Z,101042.59
2023-08-18T01:53:24.984Z,101040.88
2023-08-18T01:56:25.981Z,101045.28
2023-08-18T01:59:06.501Z,101049.53
2023-08-18T02:01:33.403Z,101043.06
2023-08-18T02:04:00.416Z,101043.19
2023-08-18T02:06:27.337Z,101047.44
2023-08-18T02:08:54.101Z,101048.50
2023-08-18T02:11:20.919Z,101050.31
2023-08-18T02:13:47.831Z,101043.91
2023-08-18T02:16:15.306Z,101043.28
2023-08-18T02:18:42.167Z,101052.44
2023-08-18T02:21:09.242Z,101054.13
2023-08-18T02:23:36.191Z,101046.31
2023-08-18T02:26:04.342Z,101048.06
2023-08-18T02:28:33.194Z,101045.88
2023-08-18T02:31:00.852Z,101044.91
2023-08-18T02:33:30.003Z,101051.84
2023-08-18T02:35:56.830Z,101060.78
2023-08-18T02:38:23.681Z,101050.44
2023-08-18T02:40:50.778Z,101050.63
2023-08-18T02:43:17.580Z,101005.44
2023-08-18T02:46:11.031Z,101042.50
2023-08-18T02:49:12.038Z,101048.81
2023-08-18T02:51:52.464Z,101042.59
2023-08-18T02:54:19.297Z,101038.41
2023-08-18T02:56:46.104Z,101029.47
2023-08-18T02:59:13.164Z,101030.84
2023-08-18T03:01:40.095Z,101028.06
2023-08-18T03:04:07.083Z,101025.41
2023-08-18T03:06:34.220Z,101024.63
2023-08-18T03:09:01.026Z,101025.59
2023-08-18T03:11:28.720Z,101023.13
2023-08-18T03:13:56.547Z,101025.75
2023-08-18T03:16:23.551Z,101024.88
2023-08-18T03:18:50.366Z,101024.88
2023-08-18T03:21:17.299Z,101020.72
2023-08-18T03:23:44.288Z,101027.16
2023-08-18T03:26:11.489Z,101023.53
2023-08-18T03:28:38.695Z,101019.06
2023-08-18T03:31:26.063Z,101020.81
2023-08-18T03:34:27.045Z,101016.63
2023-08-18T03:37:07.468Z,101022.78
2023-08-18T03:39:34.583Z,101019.34
2023-08-18T03:42:01.502Z,101024.81
2023-08-18T03:44:28.501Z,101023.00
2023-08-18T03:46:57.650Z,101026.50
2023-08-18T03:49:25.430Z,101028.38
2023-08-18T03:51:52.392Z,101032.88
2023-08-18T03:54:19.802Z,101029.47
2023-08-18T03:56:46.968Z,101034.84
2023-08-18T03:59:16.338Z,101035.75
2023-08-18T04:01:43.250Z,101035.69
2023-08-18T04:04:10.780Z,101035.56
2023-08-18T04:06:38.290Z,101040.88
2023-08-18T04:09:11.024Z,101045.44
2023-08-18T04:11:37.817Z,101046.09
2023-08-18T04:14:26.097Z,101051.50
2023-08-18T04:17:27.156Z,101055.06
2023-08-18T04:20:10.133Z,101050.69
2023-08-18T04:22:37.543Z,101048.06
2023-08-18T04:25:05.422Z,101056.03
2023-08-18T04:27:32.296Z,101058.69
2023-08-18T04:30:00.225Z,101057.78
2023-08-18T04:32:29.462Z,101051.53
2023-08-18T04:34:56.540Z,101065.97
2023-08-18T04:37:23.520Z,101065.16
2023-08-18T04:39:52.619Z,101071.41
2023-08-18T04:42:20.072Z,101061.66
2023-08-18T04:44:47.043Z,101063.47
2023-08-18T04:47:13.914Z,101067.06
2023-08-18T04:50:02.115Z,101066.91
2023-08-18T04:52:54.408Z,101066.06
2023-08-18T04:55:21.309Z,101074.81
2023-08-18T04:57:48.585Z,101072.06
2023-08-18T05:00:16.137Z,101076.22
2023-08-18T05:02:43.545Z,101083.28
2023-08-18T05:05:31.104Z,101082.63
2023-08-18T05:08:11.480Z,101072.88
2023-08-18T05:10:38.390Z,101075.50
2023-08-18T05:13:05.306Z,101071.94
2023-08-18T05:15:32.111Z,101074.28
2023-08-18T05:17:59.027Z,101076.03
2023-08-18T05:20:25.911Z,101077.25
2023-08-18T05:22:52.970Z,101079.13
2023-08-18T05:25:19.869Z,101076.47
2023-08-18T05:27:46.760Z,101076.81
2023-08-18T05:30:13.707Z,101080.28
2023-08-18T05:32:40.696Z,101075.00
2023-08-18T05:35:07.757Z,101072.22
2023-08-18T05:37:35.238Z,101073.56
2023-08-18T05:40:02.186Z,101070.91
2023-08-18T05:42:30.749Z,101066.78
2023-08-18T05:44:57.890Z,101075.78
2023-08-18T05:47:24.715Z,101064.59
2023-08-18T05:49:51.531Z,101067.28
2023-08-18T05:52:18.293Z,101074.94
2023-08-18T05:54:45.125Z,101079.00
2023-08-18T05:57:12.164Z,101080.25
2023-08-18T05:59:40.896Z,101079.34
2023-08-18T06:02:07.767Z,101080.75
2023-08-18T06:04:34.675Z,101085.06
2023-08-18T06:07:01.528Z,101077.56
2023-08-18T06:09:28.379Z,101092.59
2023-08-18T06:11:55.222Z,101092.06
2023-08-18T06:14:22.188Z,101093.19
2023-08-18T06:16:49.009Z,101096.22
2023-08-18T06:19:15.779Z,101094.91
2023-08-18T06:21:42.634Z,101096.25
2023-08-18T06:24:09.844Z,101105.19
2023-08-18T06:26:36.746Z,101108.84
2023-08-18T06:29:03.692Z,101106.13
2023-08-18T06:31:30.602Z,101102.69
2023-08-18T06:33:57.534Z,101105.41
2023-08-18T06:36:26.702Z,101112.69
2023-08-18T06:38:54.214Z,101102.22
2023-08-18T06:41:21.115Z,101111.94
2023-08-18T06:44:09.729Z,101105.34
2023-08-18T06:47:10.653Z,101105.72
2023-08-18T06:50:13.191Z,101106.16
2023-08-18T06:53:12.150Z,101121.00
2023-08-18T06:55:53.338Z,101102.00
2023-08-18T06:58:29.355Z,101109.34
2023-08-18T07:01:00.826Z,101106.25
2023-08-18T07:03:48.691Z,101110.84
2023-08-18T07:06:49.377Z,101118.25
2023-08-18T07:09:50.193Z,101124.63
2023-08-18T07:12:51.249Z,101129.91
2023-08-18T07:15:32.135Z,101120.88
2023-08-18T07:17:58.936Z,101128.94
2023-08-18T07:20:25.905Z,101118.22
2023-08-18T07:22:53.054Z,101118.81
2023-08-18T07:25:19.875Z,101130.84
2023-08-18T07:27:46.753Z,101130.56
2023-08-18T07:30:34.312Z,101133.22
2023-08-18T07:33:35.198Z,101132.25
2023-08-18T07:36:15.654Z,101125.81
2023-08-18T07:38:42.980Z,101130.66
2023-08-18T07:41:09.791Z,101130.94
2023-08-18T07:43:36.648Z,101121.41
2023-08-18T07:46:03.520Z,101127.28
2023-08-18T07:48:30.401Z,101124.53
2023-08-18T07:51:17.253Z,101123.69
2023-08-18T07:54:18.212Z,101125.34
2023-08-18T07:57:19.235Z,101126.94
2023-08-18T08:00:28.234Z,101137.97
2023-08-18T08:03:29.358Z,101120.59
2023-08-18T08:06:30.240Z,101126.91
2023-08-18T08:09:31.264Z,101128.88
2023-08-18T08:12:32.249Z,101126.41
2023-08-18T08:15:14.355Z,101130.25
2023-08-18T08:17:41.559Z,101130.56
2023-08-18T08:20:18.719Z,101127.88
2023-08-18T08:22:47.320Z,101131.16
2023-08-18T08:25:14.386Z,101130.28
2023-08-18T08:28:04.249Z,101128.44
2023-08-18T08:31:06.522Z,101132.81
2023-08-18T08:33:46.684Z,101131.66
2023-08-18T08:36:13.778Z,101130.66
2023-08-18T08:38:42.774Z,101122.41
2023-08-18T08:41:10.252Z,101126.97
2023-08-18T08:43:38.460Z,101121.00
2023-08-18T08:46:06.602Z,101118.47
2023-08-18T08:48:37.979Z,101117.75
2023-08-18T08:51:19.269Z,101116.16
2023-08-18T08:54:14.372Z,101109.81
2023-08-18T08:57:16.256Z,101110.75
2023-08-18T09:00:17.291Z,101111.88
2023-08-18T09:03:18.366Z,101116.09
2023-08-18T09:06:19.301Z,101107.53
2023-08-18T09:09:22.269Z,101109.13
2023-08-18T09:12:07.350Z,101107.81
2023-08-18T09:14:35.491Z,101104.75
2023-08-18T09:17:05.829Z,101111.25
2023-08-18T09:19:33.181Z,101108.09
2023-08-18T09:22:01.025Z,101108.50
2023-08-18T09:24:30.728Z,101108.41
2023-08-18T09:27:07.593Z,101110.41
2023-08-18T09:29:36.333Z,101114.22
2023-08-18T09:32:37.354Z,101116.53
2023-08-18T09:35:21.276Z,101120.66
2023-08-18T09:37:57.384Z,101117.25
2023-08-18T09:40:25.859Z,101114.22
2023-08-18T09:42:52.739Z,101109.13
2023-08-18T09:45:24.230Z,101107.84
2023-08-18T09:47:55.232Z,101105.28
2023-08-18T09:50:26.105Z,101106.94
2023-08-18T09:52:54.070Z,101101.31
2023-08-18T09:55:50.273Z,101096.84
2023-08-18T09:58:51.355Z,101097.28
2023-08-18T10:01:34.310Z,101089.25
2023-08-18T10:04:22.421Z,101085.38
2023-08-18T10:07:25.831Z,101088.38
2023-08-18T10:10:27.324Z,101082.03
2023-08-18T10:13:28.317Z,101084.13
2023-08-18T10:16:29.454Z,101072.69
2023-08-18T10:19:09.829Z,101076.34
2023-08-18T10:21:36.807Z,101074.69
2023-08-18T10:24:04.775Z,101067.25
2023-08-18T10:26:34.111Z,101073.00
2023-08-18T10:29:26.339Z,101062.13
2023-08-18T10:32:08.101Z,101058.63
2023-08-18T10:34:35.050Z,101057.69
2023-08-18T10:37:04.944Z,101058.25
2023-08-18T10:39:37.509Z,101064.53
2023-08-18T10:42:09.008Z,101056.91
2023-08-18T10:44:36.121Z,101058.25
2023-08-18T10:47:06.562Z,101053.56
2023-08-18T10:49:53.358Z,101051.00
2023-08-18T10:52:54.352Z,101055.47
2023-08-18T10:55:56.353Z,101052.00
2023-08-18T10:58:37.043Z,101047.56
2023-08-18T11:01:06.876Z,101049.72
2023-08-18T11:03:33.829Z,101047.13
2023-08-18T11:06:21.359Z,101037.50
2023-08-18T11:09:23.350Z,101042.47
2023-08-18T11:12:24.603Z,101042.28
2023-08-18T11:15:05.068Z,101041.53
2023-08-18T11:17:31.848Z,101032.03
2023-08-18T11:19:59.514Z,101034.31
2023-08-18T11:22:27.103Z,101034.44
2023-08-18T11:24:54.051Z,101030.59
2023-08-18T11:27:20.957Z,101031.19
2023-08-18T11:29:47.942Z,101022.66
2023-08-18T11:32:14.812Z,101024.69
2023-08-18T11:34:42.381Z,101022.75
2023-08-18T11:37:11.784Z,101017.94
2023-08-18T11:39:38.639Z,101020.22
2023-08-18T11:42:05.747Z,101019.44
2023-08-18T11:44:35.565Z,101018.63
2023-08-18T11:47:04.173Z,101026.41
2023-08-18T11:49:31.133Z,101021.38
2023-08-18T11:52:01.672Z,101010.50
2023-08-18T11:54:49.412Z,101018.97
2023-08-18T11:57:52.395Z,101017.09
2023-08-18T12:00:36.879Z,101021.16
2023-08-18T12:03:53.471Z,101020.22
2023-08-18T12:06:54.416Z,101015.81
2023-08-18T12:09:48.754Z,101009.78
2023-08-18T12:12:42.406Z,101014.66
2023-08-18T12:15:24.903Z,100999.56
2023-08-18T12:17:52.132Z,100998.25
2023-08-18T12:20:22.338Z,101000.75
2023-08-18T12:22:49.635Z,101001.16
2023-08-18T12:25:17.353Z,100991.41
2023-08-18T12:27:47.926Z,100991.00
2023-08-18T12:30:15.590Z,100990.03
2023-08-18T12:32:46.250Z,100982.44
2023-08-18T12:35:13.226Z,100977.16
2023-08-18T12:37:40.483Z,100976.81
2023-08-18T12:40:07.810Z,100970.03
2023-08-18T12:42:34.696Z,100967.50
2023-08-18T12:45:01.530Z,100967.25
2023-08-18T12:47:28.846Z,100967.81
2023-08-18T12:49:56.014Z,100966.41
2023-08-18T12:52:22.870Z,100964.34
2023-08-18T12:54:49.953Z,100959.06
2023-08-18T12:57:16.789Z,100958.19
2023-08-18T12:59:43.780Z,100958.09
2023-08-18T13:02:10.872Z,100966.25
2023-08-18T13:04:37.793Z,100960.44
2023-08-18T13:07:24.434Z,100956.75
2023-08-18T13:10:25.514Z,100957.59
2023-08-18T13:13:21.479Z,100953.13
2023-08-18T13:16:15.492Z,100959.81
2023-08-18T13:18:55.923Z,100961.09
2023-08-18T13:21:22.733Z,100950.13
2023-08-18T13:23:51.484Z,100955.38
2023-08-18T13:26:18.692Z,100956.19
2023-08-18T13:28:45.478Z,100950.75
2023-08-18T13:31:12.481Z,100950.31
2023-08-18T13:33:39.682Z,100949.03
2023-08-18T13:36:06.622Z,100950.56
2023-08-18T13:38:33.496Z,100945.91
2023-08-18T13:41:00.357Z,100945.94
2023-08-18T13:43:27.355Z,100943.94
2023-08-18T13:45:57.964Z,100941.56
2023-08-18T13:48:25.379Z,100936.22
2023-08-18T13:50:57.642Z,100930.28
2023-08-18T13:53:26.816Z,100922.38
2023-08-18T13:55:54.208Z,100929.13
2023-08-18T13:58:25.542Z,100919.16
2023-08-18T14:00:53.433Z,100919.09
2023-08-18T14:03:45.046Z,100921.63
2023-08-18T14:06:50.734Z,100912.94
2023-08-18T14:09:23.915Z,100912.31
2023-08-18T14:11:51.788Z,100909.72
2023-08-18T14:14:19.282Z,100909.91
2023-08-18T14:16:46.324Z,100901.84
2023-08-18T14:22:50.517Z,100899.03
2023-08-18T14:25:53.068Z,100893.06
2023-08-18T14:28:33.020Z,100892.13
2023-08-18T14:30:59.844Z,100888.38
2023-08-18T14:33:43.473Z,100895.19
2023-08-18T14:36:12.152Z,100889.72
2023-08-18T14:38:39.230Z,100895.31
2023-08-18T14:41:07.071Z,100895.41
2023-08-18T14:43:34.136Z,100894.75
2023-08-18T14:46:01.155Z,100881.59
2023-08-18T14:48:30.476Z,100885.84
2023-08-18T14:50:58.045Z,100877.78
2023-08-18T14:53:25.073Z,100880.50
2023-08-18T14:55:55.552Z,100880.56
2023-08-18T14:58:29.012Z,100880.53
2023-08-18T15:00:56.575Z,100875.09
2023-08-18T15:03:23.898Z,100869.28
2023-08-18T15:06:11.714Z,100868.97
2023-08-18T15:09:04.066Z,100877.91
2023-08-18T15:11:59.494Z,100871.00
2023-08-18T15:15:00.566Z,100877.22
2023-08-18T15:18:01.605Z,100880.78
2023-08-18T15:21:02.602Z,100877.59
2023-08-18T15:24:04.558Z,100872.28
2023-08-18T15:27:03.345Z,100868.09
2023-08-18T15:29:30.380Z,100873.03
2023-08-18T15:31:58.515Z,100870.00
2023-08-18T15:34:26.242Z,100865.59
2023-08-18T15:36:55.230Z,100860.59
2023-08-18T15:39:22.117Z,100862.97
2023-08-18T15:41:49.149Z,100867.16
2023-08-18T15:44:16.035Z,100862.78
2023-08-18T15:46:44.841Z,100858.34
2023-08-18T15:49:11.769Z,100854.06
2023-08-18T15:51:38.653Z,100862.13
2023-08-18T15:54:05.708Z,100853.06
2023-08-18T15:56:32.586Z,100849.31
2023-08-18T15:58:59.601Z,100848.69
2023-08-18T16:01:46.572Z,100857.56
2023-08-18T16:04:48.604Z,100862.22
2023-08-18T16:07:29.426Z,100857.38
2023-08-18T16:09:56.597Z,100858.06
2023-08-18T16:12:43.577Z,100853.63
2023-08-18T16:15:28.084Z,100859.34
2023-08-18T16:17:57.259Z,100860.59
2023-08-18T16:20:44.588Z,100866.28
2023-08-18T16:23:25.321Z,100872.31
2023-08-18T16:25:55.576Z,100871.25
2023-08-18T16:28:22.583Z,100867.06
2023-08-18T16:31:09.654Z,100873.00
2023-08-18T16:34:10.581Z,100878.84
2023-08-18T16:36:51.017Z,100872.66
2023-08-18T16:39:18.282Z,100871.25
2023-08-18T16:41:45.358Z,100876.50
2023-08-18T16:44:12.262Z,100875.41
2023-08-18T16:46:40.884Z,100884.97
2023-08-18T16:49:08.298Z,100872.25
2023-08-18T16:51:36.167Z,100881.41
2023-08-18T16:54:03.198Z,100881.97
2023-08-18T16:56:30.042Z,100875.34
2023-08-18T16:58:58.212Z,100882.31
2023-08-18T17:01:25.140Z,100877.34
2023-08-18T17:04:16.734Z,100879.75
2023-08-18T17:07:18.654Z,100877.25
2023-08-18T17:09:59.055Z,100878.81
2023-08-18T17:12:25.905Z,100882.31
2023-08-18T17:14:52.875Z,100889.03
2023-08-18T17:17:39.674Z,100874.88
2023-08-18T17:20:40.642Z,100884.22
2023-08-18T17:23:41.740Z,100882.31
2023-08-18T17:26:24.381Z,100883.88
2023-08-18T17:29:11.634Z,100879.78
2023-08-18T17:32:12.663Z,100881.41
2023-08-18T17:34:44.130Z,100879.78
2023-08-18T17:37:11.015Z,100892.22
2023-08-18T17:39:38.059Z,100886.88
2023-08-18T17:42:25.660Z,100875.09
2023-08-18T17:45:28.115Z,100876.09
2023-08-18T17:48:10.236Z,100891.03
2023-08-18T17:50:37.387Z,100891.59
2023-08-18T17:53:04.453Z,100888.97
2023-08-18T17:55:38.643Z,100893.88
2023-08-18T17:58:07.634Z,100887.47
2023-08-18T18:00:38.938Z,100881.69
2023-08-18T18:03:06.101Z,100883.25
2023-08-18T18:05:34.214Z,100891.81
2023-08-18T18:08:03.268Z,100894.69
2023-08-18T18:10:32.026Z,100893.47
2023-08-18T18:13:03.569Z,100896.03
2023-08-18T18:15:50.875Z,100889.88
2023-08-18T18:18:53.876Z,100902.53
2023-08-18T18:21:31.294Z,100901.72
2023-08-18T18:23:58.133Z,100891.88
2023-08-18T18:29:11.494Z,100896.75
2023-08-18T18:31:42.335Z,100903.25
2023-08-18T18:34:18.249Z,100906.31
2023-08-18T18:36:45.124Z,100908.44
2023-08-18T18:39:14.121Z,100907.63
2023-08-18T18:42:01.905Z,100905.44
2023-08-18T18:45:07.093Z,100910.56
2023-08-18T18:47:47.405Z,100908.00
2023-08-18T18:50:14.295Z,100916.97
2023-08-18T18:55:22.082Z,100919.72
2023-08-18T18:57:48.996Z,100922.81
2023-08-18T19:00:16.099Z,100933.41
2023-08-18T19:02:43.249Z,100933.47
2023-08-18T19:05:12.007Z,100936.03
2023-08-18T19:07:41.109Z,100939.13
2023-08-18T19:10:08.200Z,100949.09
2023-08-18T19:12:55.748Z,100947.59
2023-08-18T19:15:56.828Z,100954.06
2023-08-18T19:18:38.216Z,100948.38
2023-08-18T19:21:05.347Z,100951.81
2023-08-18T19:23:52.734Z,100954.44
2023-08-18T19:26:34.928Z,100959.81
2023-08-18T19:29:02.181Z,100967.59
2023-08-18T19:31:50.138Z,100965.88
2023-08-18T19:34:50.767Z,100967.69
2023-08-18T19:37:31.443Z,100970.81
2023-08-18T19:39:59.422Z,100972.03
2023-08-18T19:42:48.132Z,100964.84
2023-08-18T19:45:49.875Z,100966.50
2023-08-18T19:48:51.108Z,100967.44
2023-08-18T19:51:49.450Z,100972.41
2023-08-18T19:54:16.372Z,100969.91
2023-08-18T19:56:43.716Z,100964.59
2023-08-18T19:59:10.666Z,100965.34
2023-08-18T20:01:37.535Z,100971.97
2023-08-18T20:04:04.613Z,100986.50
2023-08-18T20:06:31.554Z,100976.34
2023-08-18T20:08:59.392Z,100982.09
2023-08-18T20:11:46.773Z,100975.53
2023-08-18T20:14:47.773Z,100981.03
2023-08-18T20:17:15.923Z,100985.75
2023-08-18T20:24:55.804Z,101001.22
2023-08-18T20:27:56.780Z,100996.78
2023-08-18T20:30:42.842Z,101004.41
2023-08-18T20:33:11.334Z,100995.69
2023-08-18T20:35:38.554Z,101004.88
2023-08-18T20:38:05.637Z,101001.81
2023-08-18T20:40:32.775Z,101002.53
2023-08-18T20:43:20.022Z,101004.47
2023-08-18T20:46:20.853Z,101009.84
2023-08-18T20:49:01.330Z,101021.72
2023-08-18T20:51:28.723Z,101024.63
2023-08-18T20:53:55.590Z,101029.06
2023-08-18T20:56:22.536Z,101028.69
2023-08-18T20:58:49.716Z,101034.34
2023-08-18T21:01:16.536Z,101037.25
2023-08-18T21:03:45.387Z,101042.59
2023-08-18T21:06:12.417Z,101039.16
2023-08-18T21:08:39.555Z,101041.03
2023-08-18T21:11:06.480Z,101046.19
2023-08-18T21:13:33.391Z,101044.16
2023-08-18T21:16:00.786Z,101045.34
2023-08-18T21:18:27.792Z,101045.97
2023-08-18T21:20:55.420Z,101037.72
2023-08-18T21:23:45.857Z,101040.41
2023-08-18T21:26:32.392Z,101036.00
2023-08-18T21:28:59.289Z,101035.22
2023-08-18T21:31:47.056Z,101041.72
2023-08-18T21:34:47.812Z,101044.47
2023-08-18T21:37:28.340Z,101029.00
2023-08-18T21:39:55.295Z,101044.50
2023-08-18T21:42:42.854Z,101035.88
2023-08-18T21:45:43.911Z,101036.41
2023-08-18T21:48:45.183Z,101041.25
2023-08-18T21:51:44.995Z,101038.00
2023-08-18T21:54:11.890Z,101032.56
2023-08-18T21:56:38.696Z,101046.75
2023-08-18T21:59:05.558Z,101036.97
2023-08-18T22:01:32.530Z,101038.66
2023-08-18T22:03:59.920Z,101038.06
2023-08-18T22:06:27.243Z,101038.66
2023-08-18T22:08:54.006Z,101040.69
2023-08-18T22:11:40.867Z,101039.22
2023-08-18T22:14:41.926Z,101037.56
2023-08-18T22:17:42.905Z,101041.34
2023-08-18T22:20:23.796Z,101049.63
2023-08-18T22:22:50.637Z,101053.22
2023-08-18T22:25:17.637Z,101058.03
2023-08-18T22:27:44.763Z,101057.09
2023-08-18T22:30:11.678Z,101046.34
2023-08-18T22:32:38.624Z,101059.47
2023-08-18T22:35:08.406Z,101061.09
2023-08-18T22:37:35.643Z,101064.63
2023-08-18T22:40:02.569Z,101062.31
2023-08-18T22:42:30.007Z,101065.59
2023-08-18T22:44:57.163Z,101075.56
2023-08-18T22:47:45.897Z,101080.75
2023-08-18T22:50:46.870Z,101082.94
2023-08-18T22:53:47.909Z,101081.72
2023-08-18T22:56:48.853Z,101081.53
2023-08-18T22:59:29.605Z,101077.41
2023-08-18T23:01:57.861Z,101075.34
2023-08-18T23:04:25.428Z,101068.31
2023-08-18T23:07:12.920Z,101073.47
2023-08-18T23:10:13.876Z,101065.44
2023-08-18T23:12:42.071Z,101071.59
2023-08-18T23:15:09.881Z,101069.59
2023-08-18T23:17:37.109Z,101073.13
2023-08-18T23:20:05.191Z,101078.31
2023-08-18T23:22:32.297Z,101074.88
2023-08-18T23:24:59.114Z,101073.41
2023-08-18T23:27:26.179Z,101078.59
2023-08-18T23:29:53.385Z,101084.22
2023-08-18T23:32:20.465Z,101082.06
2023-08-18T23:34:47.873Z,101081.03
2023-08-18T23:37:14.752Z,101079.09
2023-08-18T23:39:41.548Z,101075.84
2023-08-18T23:42:08.445Z,101073.31
2023-08-18T23:44:36.183Z,101072.97
2023-08-18T23:47:03.951Z,101065.78
2023-08-18T23:49:31.190Z,101062.13
2023-08-18T23:51:58.063Z,101071.16
2023-08-18T23:54:24.913Z,101069.41
2023-08-18T23:56:51.836Z,101074.06
2023-08-18T23:59:18.683Z,101068.72
